createdAt,value
2022-10-28T00:00:25.491Z,11.70
2022-10-28T00:15:23.558Z,11.73
2022-10-28T00:30:27.854Z,11.48
2022-10-28T00:45:23.366Z,11.45
2022-10-28T01:00:23.823Z,11.37
2022-10-28T01:15:23.429Z,11.05
2022-10-28T01:30:23.855Z,11.20
2022-10-28T01:45:23.448Z,11.02
2022-10-28T02:00:33.936Z,10.90
2022-10-28T02:15:23.696Z,10.72
2022-10-28T02:30:23.674Z,10.80
2022-10-28T02:45:23.697Z,10.67
2022-10-28T03:00:31.335Z,10.65
2022-10-28T03:15:23.721Z,10.60
2022-10-28T03:30:23.391Z,10.45
2022-10-28T03:45:23.348Z,10.45
2022-10-28T04:00:27.432Z,10.67
2022-10-28T04:15:23.917Z,10.70
2022-10-28T04:30:24.975Z,10.97
2022-10-28T04:45:23.714Z,11.07
2022-10-28T05:00:29.177Z,10.98
2022-10-28T05:15:23.741Z,11.03
2022-10-28T05:30:24.098Z,10.90
2022-10-28T05:45:24.108Z,10.90
2022-10-28T06:00:36.494Z,10.83
2022-10-28T06:15:22.484Z,10.83
2022-10-28T06:30:24.228Z,10.75
2022-10-28T06:45:22.739Z,10.83
2022-10-28T07:00:25.149Z,11.00
2022-10-28T07:15:24.118Z,11.07
2022-10-28T07:30:26.335Z,11.35
2022-10-28T07:45:24.182Z,11.52
2022-10-28T08:00:24.144Z,11.70
2022-10-28T08:15:24.148Z,12.00
2022-10-28T08:30:24.323Z,12.12
2022-10-28T08:45:24.125Z,12.52
2022-10-28T09:00:25.823Z,12.83
2022-10-28T09:15:24.103Z,13.23
2022-10-28T09:30:33.224Z,13.60
2022-10-28T09:45:33.320Z,13.88
2022-10-28T10:00:33.576Z,13.97
2022-10-28T10:15:23.627Z,14.52
2022-10-28T10:30:24.177Z,15.07
2022-10-28T10:45:23.406Z,15.78
2022-10-28T11:00:29.787Z,16.23
2022-10-28T11:15:23.725Z,16.90
2022-10-28T11:30:23.540Z,17.30
2022-10-28T11:45:23.597Z,17.40
2022-10-28T12:00:35.489Z,17.50
2022-10-28T12:15:24.291Z,17.67
2022-10-28T12:30:28.371Z,17.85
2022-10-28T12:45:23.850Z,18.45
2022-10-28T13:00:24.334Z,18.97
2022-10-28T13:15:24.494Z,19.50
2022-10-28T13:30:24.243Z,19.77
2022-10-28T13:45:23.727Z,20.10
2022-10-28T14:00:31.567Z,20.08
2022-10-28T14:15:23.739Z,20.10
2022-10-28T14:30:23.741Z,20.33
2022-10-28T14:45:23.565Z,19.85
2022-10-28T15:00:35.798Z,19.88
2022-10-28T15:15:24.236Z,19.65
2022-10-28T15:30:23.937Z,19.20
2022-10-28T15:45:23.769Z,19.00
2022-10-28T16:00:23.790Z,18.70
2022-10-28T16:15:23.790Z,18.25
2022-10-28T16:30:27.238Z,18.03
2022-10-28T16:45:23.683Z,17.50
2022-10-28T17:00:26.839Z,17.30
2022-10-28T17:15:23.848Z,16.90
2022-10-28T17:30:28.927Z,16.70
2022-10-28T17:45:23.862Z,16.20
2022-10-28T18:00:26.051Z,16.48
2022-10-28T18:07:13.755Z,17.50
2022-10-28T18:15:23.372Z,16.45
2022-10-28T18:30:23.511Z,16.00
2022-10-28T18:45:23.490Z,15.80
2022-10-28T19:00:25.546Z,15.60
2022-10-28T19:15:23.573Z,15.35
2022-10-28T19:30:25.290Z,15.40
2022-10-28T19:45:23.353Z,15.03
2022-10-28T20:00:26.253Z,14.88
2022-10-28T20:15:24.360Z,14.70
2022-10-28T20:30:23.737Z,14.57
2022-10-28T20:45:23.870Z,14.15
2022-10-28T21:00:30.250Z,14.02
2022-10-28T21:15:23.927Z,13.77
2022-10-28T21:30:24.242Z,13.60
2022-10-28T21:45:24.114Z,13.48
2022-10-28T22:00:47.926Z,14.00
2022-10-28T22:15:24.189Z,13.15
2022-10-28T22:30:25.399Z,13.13
2022-10-28T22:45:24.017Z,12.67
2022-10-28T23:00:30.168Z,12.70
2022-10-28T23:15:23.929Z,12.42
2022-10-28T23:30:25.114Z,12.27
2022-10-28T23:45:24.105Z,12.12
